IWG007 LEST-LEAL
Flight info
| Callsign | IWG007 |
|---|---|
| Flight time | 1h 20m |
| Altitude | 33000 |
| Route | FORNO DESAT ZMR PDT AKOKI NANDO L150 ASTRO |
| Aircraft | A20N/M-SDE2E3FGHIJ1RWXY/LB1 |
Departure
| Time | 2026-04-29 12:08 |
|---|---|
| Airport | Santiago-Rosalía de Castro Airport (LEST) |
Arrival
| Time | 2026-04-29 13:29 |
|---|---|
| Airport | Alicante-Elche Miguel Hernández Airport (LEAL) |
| Time | Latitude | Longitude | Altitude | Speed | Heading |
|---|---|---|---|---|---|
| 2026-04-29 12:08 | 42.80273 | -8.17820 | 10292 ft | 302 kts | 122° |
| 2026-04-29 12:08 | 42.79139 | -8.15269 | 10590 ft | 325 kts | 123° |
| 2026-04-29 12:08 | 42.77900 | -8.12621 | 10949 ft | 343 kts | 124° |
| 2026-04-29 12:09 | 42.77149 | -8.11053 | 11372 ft | 345 kts | 124° |
| 2026-04-29 12:09 | 42.75525 | -8.07693 | 12381 ft | 349 kts | 124° |
| 2026-04-29 12:09 | 42.74171 | -8.04902 | 13181 ft | 353 kts | 124° |
| 2026-04-29 12:09 | 42.72810 | -8.02096 | 13939 ft | 357 kts | 124° |
| 2026-04-29 12:10 | 42.71454 | -7.99297 | 14643 ft | 360 kts | 124° |
| 2026-04-29 12:10 | 42.70066 | -7.96428 | 15349 ft | 364 kts | 124° |
| 2026-04-29 12:10 | 42.68665 | -7.93531 | 16022 ft | 367 kts | 124° |
| 2026-04-29 12:10 | 42.67731 | -7.91598 | 16474 ft | 370 kts | 124° |
| 2026-04-29 12:11 | 42.65987 | -7.87990 | 17305 ft | 374 kts | 124° |
| 2026-04-29 12:11 | 42.64546 | -7.85005 | 17967 ft | 378 kts | 124° |
| 2026-04-29 12:11 | 42.63098 | -7.82004 | 18560 ft | 382 kts | 124° |
| 2026-04-29 12:11 | 42.61633 | -7.78966 | 19159 ft | 384 kts | 124° |
| 2026-04-29 12:12 | 42.60658 | -7.76945 | 19556 ft | 386 kts | 124° |
| 2026-04-29 12:12 | 42.58697 | -7.72877 | 20312 ft | 390 kts | 124° |
| 2026-04-29 12:12 | 42.57206 | -7.69783 | 20887 ft | 393 kts | 124° |
| 2026-04-29 12:12 | 42.56207 | -7.67708 | 21277 ft | 395 kts | 124° |
| 2026-04-29 12:13 | 42.54701 | -7.64580 | 21837 ft | 399 kts | 124° |
| 2026-04-29 12:13 | 42.52691 | -7.60401 | 22570 ft | 403 kts | 124° |
| 2026-04-29 12:13 | 42.51650 | -7.58236 | 22959 ft | 405 kts | 124° |
| 2026-04-29 12:13 | 42.49616 | -7.54001 | 23640 ft | 408 kts | 124° |
| 2026-04-29 12:14 | 42.48567 | -7.51817 | 23974 ft | 409 kts | 124° |
| 2026-04-29 12:14 | 42.47028 | -7.48608 | 24467 ft | 411 kts | 124° |
| 2026-04-29 12:14 | 42.45450 | -7.45349 | 24932 ft | 413 kts | 125° |
| 2026-04-29 12:14 | 42.43836 | -7.42090 | 25390 ft | 415 kts | 125° |
| 2026-04-29 12:15 | 42.42239 | -7.38884 | 25832 ft | 417 kts | 125° |
| 2026-04-29 12:15 | 42.40605 | -7.35601 | 26272 ft | 420 kts | 125° |
| 2026-04-29 12:15 | 42.39001 | -7.32375 | 26702 ft | 421 kts | 125° |
| 2026-04-29 12:15 | 42.37343 | -7.29040 | 27131 ft | 424 kts | 125° |
| 2026-04-29 12:16 | 42.35710 | -7.25754 | 27521 ft | 426 kts | 126° |
| 2026-04-29 12:16 | 42.34240 | -7.22800 | 27867 ft | 428 kts | 126° |
| 2026-04-29 12:16 | 42.32495 | -7.19298 | 28264 ft | 430 kts | 126° |
| 2026-04-29 12:16 | 42.30927 | -7.16154 | 28618 ft | 432 kts | 126° |
| 2026-04-29 12:17 | 42.29265 | -7.12824 | 28964 ft | 434 kts | 126° |
| 2026-04-29 12:17 | 42.27573 | -7.09441 | 29310 ft | 436 kts | 126° |
| 2026-04-29 12:17 | 42.25867 | -7.06033 | 29654 ft | 438 kts | 126° |
| 2026-04-29 12:17 | 42.24157 | -7.02619 | 29980 ft | 440 kts | 126° |
| 2026-04-29 12:18 | 42.22454 | -6.99223 | 30279 ft | 441 kts | 126° |
| 2026-04-29 12:18 | 42.20717 | -6.95764 | 30569 ft | 443 kts | 126° |
| 2026-04-29 12:18 | 42.19002 | -6.92353 | 30857 ft | 444 kts | 126° |
| 2026-04-29 12:18 | 42.17387 | -6.89142 | 31210 ft | 444 kts | 126° |
| 2026-04-29 12:19 | 42.15650 | -6.85694 | 31613 ft | 443 kts | 126° |
| 2026-04-29 12:19 | 42.13917 | -6.82258 | 32010 ft | 442 kts | 126° |
| 2026-04-29 12:19 | 42.12201 | -6.78858 | 32389 ft | 441 kts | 126° |
| 2026-04-29 12:19 | 42.10473 | -6.75439 | 32720 ft | 441 kts | 126° |
| 2026-04-29 12:20 | 42.08744 | -6.72022 | 32825 ft | 439 kts | 127° |
| 2026-04-29 12:20 | 42.07020 | -6.68620 | 32826 ft | 438 kts | 127° |
| 2026-04-29 12:20 | 42.03599 | -6.61882 | 32825 ft | 438 kts | 127° |
| 2026-04-29 12:21 | 42.00159 | -6.55120 | 32825 ft | 439 kts | 127° |
| 2026-04-29 12:21 | 41.96716 | -6.48366 | 32830 ft | 439 kts | 127° |
| 2026-04-29 12:22 | 41.93272 | -6.41626 | 32828 ft | 439 kts | 127° |
| 2026-04-29 12:22 | 41.89803 | -6.34853 | 32832 ft | 439 kts | 127° |
| 2026-04-29 12:23 | 41.86455 | -6.28328 | 32836 ft | 440 kts | 127° |
| 2026-04-29 12:23 | 41.83012 | -6.21633 | 32838 ft | 440 kts | 127° |
| 2026-04-29 12:24 | 41.79522 | -6.14866 | 32843 ft | 440 kts | 127° |
| 2026-04-29 12:24 | 41.76050 | -6.08152 | 32842 ft | 440 kts | 128° |
| 2026-04-29 12:25 | 41.72548 | -6.01392 | 32847 ft | 440 kts | 128° |
| 2026-04-29 12:26 | 41.67357 | -5.91401 | 32847 ft | 440 kts | 128° |
| 2026-04-29 12:26 | 41.63905 | -5.84774 | 32857 ft | 442 kts | 128° |
| 2026-04-29 12:27 | 41.60423 | -5.78103 | 32859 ft | 442 kts | 128° |
| 2026-04-29 12:27 | 41.57020 | -5.71599 | 32858 ft | 442 kts | 128° |
| 2026-04-29 12:28 | 41.53488 | -5.64862 | 32856 ft | 442 kts | 128° |
| 2026-04-29 12:28 | 41.49947 | -5.58217 | 32855 ft | 442 kts | 129° |
| 2026-04-29 12:29 | 41.46345 | -5.51559 | 32857 ft | 442 kts | 129° |
| 2026-04-29 12:29 | 41.42858 | -5.45103 | 32856 ft | 443 kts | 129° |
| 2026-04-29 12:30 | 41.39260 | -5.38449 | 32863 ft | 444 kts | 129° |
| 2026-04-29 12:30 | 41.35671 | -5.31826 | 32862 ft | 444 kts | 129° |
| 2026-04-29 12:31 | 41.32102 | -5.25254 | 32865 ft | 445 kts | 129° |
| 2026-04-29 12:31 | 41.28524 | -5.18681 | 32870 ft | 446 kts | 129° |
| 2026-04-29 12:32 | 41.24900 | -5.12037 | 32868 ft | 446 kts | 129° |
| 2026-04-29 12:32 | 41.21250 | -5.05360 | 32866 ft | 447 kts | 129° |
| 2026-04-29 12:33 | 41.17587 | -4.98674 | 32868 ft | 447 kts | 129° |
| 2026-04-29 12:33 | 41.13913 | -4.91981 | 32864 ft | 448 kts | 130° |
| 2026-04-29 12:34 | 41.10241 | -4.85308 | 32870 ft | 448 kts | 130° |
| 2026-04-29 12:34 | 41.06577 | -4.78663 | 32863 ft | 449 kts | 130° |
| 2026-04-29 12:35 | 41.02883 | -4.71978 | 32865 ft | 450 kts | 130° |
| 2026-04-29 12:35 | 40.99172 | -4.65278 | 32877 ft | 450 kts | 130° |
| 2026-04-29 12:36 | 40.95473 | -4.58613 | 32866 ft | 451 kts | 130° |
| 2026-04-29 12:36 | 40.92022 | -4.52408 | 32872 ft | 451 kts | 130° |
| 2026-04-29 12:37 | 40.88290 | -4.45712 | 32885 ft | 452 kts | 130° |
| 2026-04-29 12:37 | 40.84551 | -4.39019 | 32883 ft | 452 kts | 130° |
| 2026-04-29 12:38 | 40.80826 | -4.32363 | 32892 ft | 453 kts | 130° |
| 2026-04-29 12:38 | 40.77089 | -4.25702 | 32895 ft | 453 kts | 130° |
| 2026-04-29 12:39 | 40.73336 | -4.19027 | 32910 ft | 453 kts | 130° |
| 2026-04-29 12:39 | 40.69569 | -4.12339 | 32922 ft | 454 kts | 130° |
| 2026-04-29 12:40 | 40.65944 | -4.05919 | 32925 ft | 454 kts | 130° |
| 2026-04-29 12:40 | 40.62173 | -3.99253 | 32913 ft | 454 kts | 130° |
| 2026-04-29 12:41 | 40.58384 | -3.92573 | 32914 ft | 455 kts | 130° |
| 2026-04-29 12:41 | 40.54591 | -3.85897 | 32909 ft | 455 kts | 130° |
| 2026-04-29 12:42 | 40.50783 | -3.79211 | 32884 ft | 456 kts | 130° |
| 2026-04-29 12:42 | 40.46991 | -3.72566 | 32875 ft | 457 kts | 130° |
| 2026-04-29 12:43 | 40.43277 | -3.66072 | 32869 ft | 458 kts | 131° |
| 2026-04-29 12:43 | 40.39457 | -3.59406 | 32863 ft | 459 kts | 131° |
| 2026-04-29 12:44 | 40.35608 | -3.52704 | 32874 ft | 460 kts | 131° |
| 2026-04-29 12:44 | 40.31864 | -3.46197 | 32881 ft | 462 kts | 131° |
| 2026-04-29 12:45 | 40.27987 | -3.39457 | 32895 ft | 464 kts | 129° |
| 2026-04-29 12:45 | 40.24914 | -3.32285 | 32894 ft | 472 kts | 116° |
| 2026-04-29 12:46 | 40.22911 | -3.24053 | 32912 ft | 476 kts | 109° |
| 2026-04-29 12:46 | 40.21104 | -3.15798 | 32927 ft | 477 kts | 109° |
| 2026-04-29 12:47 | 40.19251 | -3.07419 | 32934 ft | 478 kts | 109° |
| 2026-04-29 12:47 | 40.17401 | -2.99094 | 32938 ft | 479 kts | 109° |
| 2026-04-29 12:48 | 40.15535 | -2.90729 | 32929 ft | 479 kts | 109° |
| 2026-04-29 12:48 | 40.13665 | -2.82376 | 32929 ft | 477 kts | 109° |
| 2026-04-29 12:49 | 40.11873 | -2.74405 | 32934 ft | 477 kts | 109° |
| 2026-04-29 12:49 | 40.09995 | -2.66083 | 32936 ft | 476 kts | 109° |
| 2026-04-29 12:50 | 40.08112 | -2.57764 | 32939 ft | 476 kts | 109° |
| 2026-04-29 12:50 | 40.06232 | -2.49492 | 32936 ft | 475 kts | 109° |
| 2026-04-29 12:51 | 40.04353 | -2.41255 | 32943 ft | 475 kts | 109° |
| 2026-04-29 12:51 | 40.02471 | -2.33032 | 32944 ft | 474 kts | 109° |
| 2026-04-29 12:52 | 40.00651 | -2.25110 | 32947 ft | 474 kts | 109° |
| 2026-04-29 12:52 | 39.99518 | -2.21087 | 32954 ft | 469 kts | 120° |
| 2026-04-29 12:52 | 39.97827 | -2.17475 | 32943 ft | 463 kts | 131° |
| 2026-04-29 12:52 | 39.95675 | -2.14452 | 32940 ft | 456 kts | 143° |
| 2026-04-29 12:53 | 39.93165 | -2.11949 | 32936 ft | 453 kts | 148° |
| 2026-04-29 12:53 | 39.88066 | -2.07079 | 32931 ft | 454 kts | 148° |
| 2026-04-29 12:54 | 39.82945 | -2.02180 | 32954 ft | 459 kts | 148° |
| 2026-04-29 12:54 | 39.77828 | -1.97291 | 32960 ft | 460 kts | 148° |
| 2026-04-29 12:55 | 39.72656 | -1.92358 | 32957 ft | 462 kts | 148° |
| 2026-04-29 12:55 | 39.67616 | -1.87562 | 32959 ft | 464 kts | 148° |
| 2026-04-29 12:56 | 39.62553 | -1.82751 | 32962 ft | 465 kts | 148° |
| 2026-04-29 12:56 | 39.57315 | -1.77784 | 32964 ft | 466 kts | 148° |
| 2026-04-29 12:57 | 39.52115 | -1.72863 | 32965 ft | 467 kts | 148° |
| 2026-04-29 12:57 | 39.46845 | -1.67885 | 32959 ft | 468 kts | 148° |
| 2026-04-29 12:58 | 39.41568 | -1.62910 | 32955 ft | 469 kts | 149° |
| 2026-04-29 12:58 | 39.36321 | -1.57973 | 32954 ft | 469 kts | 149° |
| 2026-04-29 12:59 | 39.31194 | -1.53159 | 32959 ft | 470 kts | 149° |
| 2026-04-29 12:59 | 39.26786 | -1.49027 | 32956 ft | 470 kts | 149° |
| 2026-04-29 13:00 | 39.21519 | -1.44095 | 32955 ft | 470 kts | 148° |
| 2026-04-29 13:00 | 39.16196 | -1.39120 | 32951 ft | 471 kts | 149° |
| 2026-04-29 13:01 | 39.10909 | -1.34205 | 32935 ft | 465 kts | 145° |
| 2026-04-29 13:01 | 39.05735 | -1.29381 | 32926 ft | 466 kts | 149° |
| 2026-04-29 13:02 | 39.00397 | -1.24410 | 32914 ft | 475 kts | 149° |
| 2026-04-29 13:02 | 38.95096 | -1.19490 | 32681 ft | 472 kts | 149° |
| 2026-04-29 13:02 | 38.92428 | -1.17019 | 32073 ft | 472 kts | 149° |
| 2026-04-29 13:03 | 38.89742 | -1.14536 | 31156 ft | 477 kts | 148° |
| 2026-04-29 13:03 | 38.87053 | -1.12055 | 30145 ft | 483 kts | 148° |
| 2026-04-29 13:03 | 38.84302 | -1.09518 | 29131 ft | 486 kts | 148° |
| 2026-04-29 13:03 | 38.81710 | -1.07126 | 28294 ft | 485 kts | 148° |
| 2026-04-29 13:04 | 38.78965 | -1.04595 | 27396 ft | 484 kts | 148° |
| 2026-04-29 13:04 | 38.76266 | -1.02110 | 26491 ft | 483 kts | 147° |
| 2026-04-29 13:04 | 38.73508 | -0.99575 | 25521 ft | 483 kts | 147° |
| 2026-04-29 13:04 | 38.70806 | -0.97094 | 24634 ft | 482 kts | 147° |
| 2026-04-29 13:05 | 38.68104 | -0.94616 | 23768 ft | 480 kts | 147° |
| 2026-04-29 13:05 | 38.65597 | -0.92317 | 23019 ft | 474 kts | 147° |
| 2026-04-29 13:05 | 38.63060 | -0.89991 | 22228 ft | 469 kts | 147° |
| 2026-04-29 13:05 | 38.60495 | -0.87641 | 21426 ft | 463 kts | 147° |
| 2026-04-29 13:06 | 38.57882 | -0.85250 | 20628 ft | 458 kts | 147° |
| 2026-04-29 13:06 | 38.55334 | -0.82922 | 19853 ft | 453 kts | 147° |
| 2026-04-29 13:06 | 38.52920 | -0.80698 | 19126 ft | 450 kts | 145° |
| 2026-04-29 13:06 | 38.50667 | -0.77942 | 18398 ft | 450 kts | 133° |
| 2026-04-29 13:07 | 38.48928 | -0.74625 | 17585 ft | 450 kts | 120° |
| 2026-04-29 13:07 | 38.47812 | -0.70948 | 16805 ft | 449 kts | 107° |
| 2026-04-29 13:07 | 38.47363 | -0.67033 | 16082 ft | 447 kts | 93° |
| 2026-04-29 13:07 | 38.47626 | -0.63062 | 15337 ft | 445 kts | 79° |
| 2026-04-29 13:08 | 38.48591 | -0.59343 | 14610 ft | 441 kts | 65° |
| 2026-04-29 13:08 | 38.50209 | -0.56039 | 13880 ft | 438 kts | 51° |
| 2026-04-29 13:08 | 38.52249 | -0.53202 | 13155 ft | 432 kts | 47° |
| 2026-04-29 13:08 | 38.54215 | -0.50330 | 12474 ft | 425 kts | 49° |
| 2026-04-29 13:09 | 38.56107 | -0.47514 | 11762 ft | 419 kts | 49° |
| 2026-04-29 13:09 | 38.57993 | -0.44712 | 11084 ft | 413 kts | 46° |
| 2026-04-29 13:09 | 38.60182 | -0.42394 | 10408 ft | 406 kts | 30° |
| 2026-04-29 13:09 | 38.62748 | -0.41003 | 9767 ft | 398 kts | 13° |
| 2026-04-29 13:10 | 38.65439 | -0.40641 | 9038 ft | 390 kts | 357° |
| 2026-04-29 13:10 | 38.67974 | -0.41153 | 8335 ft | 384 kts | 341° |
| 2026-04-29 13:10 | 38.70298 | -0.42611 | 7676 ft | 377 kts | 323° |
| 2026-04-29 13:10 | 38.72102 | -0.44886 | 7435 ft | 359 kts | 306° |
| 2026-04-29 13:11 | 38.73308 | -0.47592 | 7273 ft | 341 kts | 291° |
| 2026-04-29 13:11 | 38.73911 | -0.50448 | 7122 ft | 325 kts | 277° |
| 2026-04-29 13:11 | 38.73955 | -0.53271 | 6981 ft | 310 kts | 263° |
| 2026-04-29 13:11 | 38.73503 | -0.55904 | 6866 ft | 296 kts | 250° |
| 2026-04-29 13:12 | 38.72636 | -0.58232 | 6740 ft | 283 kts | 238° |
| 2026-04-29 13:12 | 38.71454 | -0.60168 | 6631 ft | 271 kts | 226° |
| 2026-04-29 13:12 | 38.70102 | -0.61771 | 6535 ft | 259 kts | 223° |
| 2026-04-29 13:12 | 38.68820 | -0.63283 | 6437 ft | 248 kts | 223° |
| 2026-04-29 13:13 | 38.67581 | -0.64756 | 6334 ft | 235 kts | 223° |
| 2026-04-29 13:13 | 38.66483 | -0.66065 | 6234 ft | 223 kts | 223° |
| 2026-04-29 13:13 | 38.65374 | -0.67386 | 6137 ft | 212 kts | 223° |
| 2026-04-29 13:13 | 38.64323 | -0.68637 | 5979 ft | 204 kts | 223° |
| 2026-04-29 13:14 | 38.63273 | -0.69885 | 5984 ft | 211 kts | 223° |
| 2026-04-29 13:14 | 38.62200 | -0.71157 | 5981 ft | 209 kts | 223° |
| 2026-04-29 13:14 | 38.61130 | -0.72424 | 5985 ft | 210 kts | 223° |
| 2026-04-29 13:14 | 38.60078 | -0.73670 | 5986 ft | 209 kts | 223° |
| 2026-04-29 13:15 | 38.58988 | -0.74959 | 5982 ft | 210 kts | 223° |
| 2026-04-29 13:15 | 38.57913 | -0.76230 | 5984 ft | 210 kts | 223° |
| 2026-04-29 13:15 | 38.56842 | -0.77495 | 5985 ft | 210 kts | 223° |
| 2026-04-29 13:15 | 38.55769 | -0.78762 | 5986 ft | 210 kts | 223° |
| 2026-04-29 13:16 | 38.54716 | -0.80005 | 5988 ft | 210 kts | 223° |
| 2026-04-29 13:16 | 38.53643 | -0.81270 | 5986 ft | 210 kts | 223° |
| 2026-04-29 13:16 | 38.52564 | -0.82542 | 5967 ft | 211 kts | 223° |
| 2026-04-29 13:16 | 38.51491 | -0.83804 | 5907 ft | 209 kts | 223° |
| 2026-04-29 13:17 | 38.50415 | -0.85065 | 5858 ft | 209 kts | 223° |
| 2026-04-29 13:17 | 38.49341 | -0.86319 | 5801 ft | 209 kts | 222° |
| 2026-04-29 13:17 | 38.48340 | -0.87485 | 5765 ft | 209 kts | 222° |
| 2026-04-29 13:17 | 38.47262 | -0.88736 | 5748 ft | 209 kts | 222° |
| 2026-04-29 13:18 | 38.46185 | -0.89984 | 5732 ft | 209 kts | 222° |
| 2026-04-29 13:18 | 38.45103 | -0.91234 | 5734 ft | 209 kts | 222° |
| 2026-04-29 13:18 | 38.44023 | -0.92480 | 5749 ft | 209 kts | 222° |
| 2026-04-29 13:18 | 38.42950 | -0.93713 | 5762 ft | 209 kts | 221° |
| 2026-04-29 13:19 | 38.41808 | -0.94863 | 5776 ft | 209 kts | 214° |
| 2026-04-29 13:19 | 38.40562 | -0.95797 | 5799 ft | 209 kts | 206° |
| 2026-04-29 13:19 | 38.39214 | -0.96509 | 5831 ft | 206 kts | 198° |
| 2026-04-29 13:19 | 38.37888 | -0.96836 | 5961 ft | 183 kts | 182° |
| 2026-04-29 13:20 | 38.36695 | -0.96660 | 5956 ft | 165 kts | 163° |
| 2026-04-29 13:20 | 38.35691 | -0.96118 | 5873 ft | 153 kts | 153° |
| 2026-04-29 13:20 | 38.34813 | -0.95405 | 5777 ft | 156 kts | 141° |
| 2026-04-29 13:20 | 38.34054 | -0.94418 | 5818 ft | 151 kts | 128° |
| 2026-04-29 13:21 | 38.33535 | -0.93281 | 5740 ft | 149 kts | 112° |
| 2026-04-29 13:21 | 38.33299 | -0.91994 | 5614 ft | 149 kts | 97° |
| 2026-04-29 13:21 | 38.33158 | -0.90685 | 5500 ft | 149 kts | 99° |
| 2026-04-29 13:21 | 38.32983 | -0.89404 | 5313 ft | 150 kts | 101° |
| 2026-04-29 13:22 | 38.32751 | -0.88129 | 5016 ft | 147 kts | 105° |
| 2026-04-29 13:22 | 38.32472 | -0.86887 | 4726 ft | 146 kts | 106° |
| 2026-04-29 13:22 | 38.32281 | -0.85696 | 4475 ft | 145 kts | 99° |
| 2026-04-29 13:22 | 38.32156 | -0.84424 | 4217 ft | 144 kts | 97° |
| 2026-04-29 13:23 | 38.32070 | -0.83158 | 3997 ft | 143 kts | 97° |
| 2026-04-29 13:23 | 38.31953 | -0.81977 | 3785 ft | 143 kts | 101° |
| 2026-04-29 13:23 | 38.31739 | -0.80753 | 3554 ft | 142 kts | 105° |
| 2026-04-29 13:23 | 38.31504 | -0.79529 | 3355 ft | 142 kts | 104° |
| 2026-04-29 13:24 | 38.31342 | -0.78298 | 3217 ft | 141 kts | 99° |
| 2026-04-29 13:24 | 38.31212 | -0.77052 | 3094 ft | 141 kts | 101° |
| 2026-04-29 13:24 | 38.31028 | -0.75826 | 2963 ft | 141 kts | 103° |
| 2026-04-29 13:24 | 38.30825 | -0.74619 | 2808 ft | 141 kts | 105° |
| 2026-04-29 13:25 | 38.30617 | -0.73415 | 2646 ft | 140 kts | 102° |
| 2026-04-29 13:25 | 38.30393 | -0.70970 | 2220 ft | 135 kts | 104° |
| 2026-04-29 13:25 | 38.30188 | -0.69801 | 2055 ft | 136 kts | 105° |
| 2026-04-29 13:26 | 38.30029 | -0.68628 | 1922 ft | 136 kts | 98° |
| 2026-04-29 13:26 | 38.29954 | -0.67432 | 1796 ft | 135 kts | 98° |
| 2026-04-29 13:26 | 38.29791 | -0.66269 | 1614 ft | 134 kts | 105° |
| 2026-04-29 13:26 | 38.29573 | -0.65143 | 1397 ft | 129 kts | 105° |
| 2026-04-29 13:27 | 38.29356 | -0.64038 | 1165 ft | 127 kts | 106° |
| 2026-04-29 13:27 | 38.29191 | -0.62934 | 1001 ft | 127 kts | 100° |
| 2026-04-29 13:27 | 38.29050 | -0.61825 | 848 ft | 127 kts | 101° |
| 2026-04-29 13:27 | 38.28915 | -0.60723 | 658 ft | 127 kts | 100° |
| 2026-04-29 13:28 | 38.28756 | -0.59616 | 487 ft | 126 kts | 102° |
| 2026-04-29 13:28 | 38.28601 | -0.58507 | 332 ft | 129 kts | 99° |
| 2026-04-29 13:28 | 38.28444 | -0.57415 | 166 ft | 125 kts | 101° |
| 2026-04-29 13:28 | 38.28318 | -0.56532 | 122 ft | 62 kts | 101° |
| 2026-04-29 13:29 | 38.28245 | -0.56020 | 107 ft | 58 kts | 99° |
| 2026-04-29 13:29 | 38.28234 | -0.55585 | 92 ft | 41 kts | 72° |
| 2026-04-29 13:29 | 38.28339 | -0.55259 | 84 ft | 37 kts | 66° |
| 2026-04-29 13:29 | 38.28445 | -0.55181 | 92 ft | 14 kts | 357° |
| 2026-04-29 13:30 | 38.28515 | -0.55175 | 94 ft | 3 kts | 10° |